sensor_id;sensor_type;location;lat;lon;timestamp;temperature;humidity
13928;DHT22;7036;50.834;4.718;2022-11-04T00:01:25;19.80;63.00
13928;DHT22;7036;50.834;4.718;2022-11-04T00:03:52;19.80;62.20
13928;DHT22;7036;50.834;4.718;2022-11-04T00:06:19;19.80;62.30
13928;DHT22;7036;50.834;4.718;2022-11-04T00:08:53;19.80;62.30
13928;DHT22;7036;50.834;4.718;2022-11-04T00:11:19;19.80;62.30
13928;DHT22;7036;50.834;4.718;2022-11-04T00:14:06;19.80;62.40
13928;DHT22;7036;50.834;4.718;2022-11-04T00:16:32;19.70;63.10
13928;DHT22;7036;50.834;4.718;2022-11-04T00:19:17;19.70;62.20
13928;DHT22;7036;50.834;4.718;2022-11-04T00:21:45;19.70;62.40
13928;DHT22;7036;50.834;4.718;2022-11-04T00:24:30;19.70;62.20
13928;DHT22;7036;50.834;4.718;2022-11-04T00:27:12;19.70;62.20
13928;DHT22;7036;50.834;4.718;2022-11-04T00:29:55;19.70;62.30
13928;DHT22;7036;50.834;4.718;2022-11-04T00:32:21;19.70;62.30
13928;DHT22;7036;50.834;4.718;2022-11-04T00:35:06;19.70;62.30
13928;DHT22;7036;50.834;4.718;2022-11-04T00:37:38;19.70;62.30
13928;DHT22;7036;50.834;4.718;2022-11-04T00:40:04;19.70;62.20
13928;DHT22;7036;50.834;4.718;2022-11-04T00:42:31;19.70;62.20
13928;DHT22;7036;50.834;4.718;2022-11-04T00:44:58;19.70;62.20
13928;DHT22;7036;50.834;4.718;2022-11-04T00:47:26;19.70;62.20
13928;DHT22;7036;50.834;4.718;2022-11-04T00:49:53;19.70;62.30
13928;DHT22;7036;50.834;4.718;2022-11-04T00:52:21;19.70;62.20
13928;DHT22;7036;50.834;4.718;2022-11-04T00:54:48;19.70;62.20
13928;DHT22;7036;50.834;4.718;2022-11-04T00:57:15;19.70;62.20
13928;DHT22;7036;50.834;4.718;2022-11-04T00:59:43;19.70;62.40
13928;DHT22;7036;50.834;4.718;2022-11-04T01:02:10;19.70;62.30
13928;DHT22;7036;50.834;4.718;2022-11-04T01:04:37;19.60;62.10
13928;DHT22;7036;50.834;4.718;2022-11-04T01:07:05;19.70;62.30
13928;DHT22;7036;50.834;4.718;2022-11-04T01:09:31;19.60;62.10
13928;DHT22;7036;50.834;4.718;2022-11-04T01:11:59;19.60;62.30
13928;DHT22;7036;50.834;4.718;2022-11-04T01:14:27;19.60;62.10
13928;DHT22;7036;50.834;4.718;2022-11-04T01:16:55;19.60;62.10
13928;DHT22;7036;50.834;4.718;2022-11-04T01:19:23;19.60;62.30
13928;DHT22;7036;50.834;4.718;2022-11-04T01:21:50;19.60;62.10
13928;DHT22;7036;50.834;4.718;2022-11-04T01:24:17;19.60;62.10
13928;DHT22;7036;50.834;4.718;2022-11-04T01:26:46;19.60;61.70
13928;DHT22;7036;50.834;4.718;2022-11-04T01:29:13;19.60;62.10
13928;DHT22;7036;50.834;4.718;2022-11-04T01:31:40;19.60;62.10
13928;DHT22;7036;50.834;4.718;2022-11-04T01:34:08;19.60;62.30
13928;DHT22;7036;50.834;4.718;2022-11-04T01:36:35;19.60;62.10
13928;DHT22;7036;50.834;4.718;2022-11-04T01:39:03;19.60;62.30
13928;DHT22;7036;50.834;4.718;2022-11-04T01:41:31;19.60;62.20
13928;DHT22;7036;50.834;4.718;2022-11-04T01:44:02;19.60;62.10
13928;DHT22;7036;50.834;4.718;2022-11-04T01:46:35;19.60;62.10
13928;DHT22;7036;50.834;4.718;2022-11-04T01:51:52;19.60;62.10
13928;DHT22;7036;50.834;4.718;2022-11-04T01:54:18;19.60;62.20
13928;DHT22;7036;50.834;4.718;2022-11-04T01:56:45;19.60;62.20
13928;DHT22;7036;50.834;4.718;2022-11-04T01:59:20;19.60;62.60
13928;DHT22;7036;50.834;4.718;2022-11-04T02:01:46;19.50;62.10
13928;DHT22;7036;50.834;4.718;2022-11-04T02:04:13;19.50;62.10
13928;DHT22;7036;50.834;4.718;2022-11-04T02:06:59;19.50;62.10
13928;DHT22;7036;50.834;4.718;2022-11-04T02:09:27;19.50;62.10
13928;DHT22;7036;50.834;4.718;2022-11-04T02:11:53;19.50;62.10
13928;DHT22;7036;50.834;4.718;2022-11-04T02:14:38;19.50;62.10
13928;DHT22;7036;50.834;4.718;2022-11-04T02:27:29;19.50;62.10
13928;DHT22;7036;50.834;4.718;2022-11-04T02:30:07;19.50;62.00
13928;DHT22;7036;50.834;4.718;2022-11-04T02:32:55;19.50;62.00
13928;DHT22;7036;50.834;4.718;2022-11-04T02:35:32;19.50;62.00
13928;DHT22;7036;50.834;4.718;2022-11-04T02:38:09;19.50;62.10
13928;DHT22;7036;50.834;4.718;2022-11-04T02:40:52;19.50;62.10
13928;DHT22;7036;50.834;4.718;2022-11-04T02:43:25;19.50;62.10
13928;DHT22;7036;50.834;4.718;2022-11-04T02:45:51;19.50;62.10
13928;DHT22;7036;50.834;4.718;2022-11-04T02:48:23;19.50;62.10
13928;DHT22;7036;50.834;4.718;2022-11-04T02:53:31;19.50;62.00
13928;DHT22;7036;50.834;4.718;2022-11-04T02:55:54;19.50;62.00
13928;DHT22;7036;50.834;4.718;2022-11-04T02:58:32;19.50;62.10
13928;DHT22;7036;50.834;4.718;2022-11-04T03:00:56;19.50;62.00
13928;DHT22;7036;50.834;4.718;2022-11-04T03:03:26;19.50;62.00
13928;DHT22;7036;50.834;4.718;2022-11-04T03:05:52;19.40;62.00
13928;DHT22;7036;50.834;4.718;2022-11-04T03:08:32;19.40;62.00
13928;DHT22;7036;50.834;4.718;2022-11-04T03:11:02;19.40;61.40
13928;DHT22;7036;50.834;4.718;2022-11-04T03:13:49;19.40;62.10
13928;DHT22;7036;50.834;4.718;2022-11-04T03:16:02;19.40;62.00
13928;DHT22;7036;50.834;4.718;2022-11-04T03:20:57;19.40;62.00
13928;DHT22;7036;50.834;4.718;2022-11-04T03:23:23;19.40;61.90
13928;DHT22;7036;50.834;4.718;2022-11-04T03:25:51;19.40;62.60
13928;DHT22;7036;50.834;4.718;2022-11-04T03:28:33;19.40;61.90
13928;DHT22;7036;50.834;4.718;2022-11-04T03:30:57;19.40;62.00
13928;DHT22;7036;50.834;4.718;2022-11-04T03:35:51;19.40;62.10
13928;DHT22;7036;50.834;4.718;2022-11-04T03:38:19;19.40;61.90
13928;DHT22;7036;50.834;4.718;2022-11-04T03:40:47;19.40;62.10
13928;DHT22;7036;50.834;4.718;2022-11-04T03:43:21;19.40;62.60
13928;DHT22;7036;50.834;4.718;2022-11-04T03:45:47;19.40;62.00
13928;DHT22;7036;50.834;4.718;2022-11-04T03:48:15;19.40;62.00
13928;DHT22;7036;50.834;4.718;2022-11-04T03:50:43;19.40;62.00
13928;DHT22;7036;50.834;4.718;2022-11-04T03:53:10;19.40;62.00
13928;DHT22;7036;50.834;4.718;2022-11-04T03:55:59;19.40;62.00
13928;DHT22;7036;50.834;4.718;2022-11-04T03:58:42;19.40;62.00
13928;DHT22;7036;50.834;4.718;2022-11-04T04:01:25;19.30;62.00
13928;DHT22;7036;50.834;4.718;2022-11-04T04:03:51;19.30;62.00
13928;DHT22;7036;50.834;4.718;2022-11-04T04:06:17;19.40;62.10
13928;DHT22;7036;50.834;4.718;2022-11-04T04:08:54;19.40;62.10
13928;DHT22;7036;50.834;4.718;2022-11-04T04:11:29;19.40;62.00
13928;DHT22;7036;50.834;4.718;2022-11-04T04:16:44;19.30;62.00
13928;DHT22;7036;50.834;4.718;2022-11-04T04:19:12;19.30;62.90
13928;DHT22;7036;50.834;4.718;2022-11-04T04:22:02;19.30;62.00
13928;DHT22;7036;50.834;4.718;2022-11-04T04:24:26;19.30;62.00
13928;DHT22;7036;50.834;4.718;2022-11-04T04:27:10;19.30;62.00
13928;DHT22;7036;50.834;4.718;2022-11-04T04:29:55;19.30;62.00
13928;DHT22;7036;50.834;4.718;2022-11-04T04:32:23;19.30;62.00
13928;DHT22;7036;50.834;4.718;2022-11-04T04:34:49;19.30;62.00
13928;DHT22;7036;50.834;4.718;2022-11-04T04:37:20;19.30;62.10
13928;DHT22;7036;50.834;4.718;2022-11-04T04:39:53;19.30;62.00
13928;DHT22;7036;50.834;4.718;2022-11-04T04:42:39;19.30;62.00
13928;DHT22;7036;50.834;4.718;2022-11-04T04:45:36;19.30;62.00
13928;DHT22;7036;50.834;4.718;2022-11-04T04:48:02;19.30;62.00
13928;DHT22;7036;50.834;4.718;2022-11-04T04:50:46;19.30;62.10
13928;DHT22;7036;50.834;4.718;2022-11-04T04:53:12;19.30;62.00
13928;DHT22;7036;50.834;4.718;2022-11-04T04:55:39;19.30;62.00
13928;DHT22;7036;50.834;4.718;2022-11-04T04:58:06;19.30;62.00
13928;DHT22;7036;50.834;4.718;2022-11-04T05:00:33;19.30;62.00
13928;DHT22;7036;50.834;4.718;2022-11-04T05:03:01;19.30;62.90
13928;DHT22;7036;50.834;4.718;2022-11-04T05:05:29;19.30;62.00
13928;DHT22;7036;50.834;4.718;2022-11-04T05:08:02;19.30;62.10
13928;DHT22;7036;50.834;4.718;2022-11-04T05:10:24;19.30;62.00
13928;DHT22;7036;50.834;4.718;2022-11-04T05:12:51;19.30;62.00
13928;DHT22;7036;50.834;4.718;2022-11-04T05:15:37;19.30;62.10
13928;DHT22;7036;50.834;4.718;2022-11-04T05:18:03;19.30;62.10
13928;DHT22;7036;50.834;4.718;2022-11-04T05:20:31;19.30;62.10
13928;DHT22;7036;50.834;4.718;2022-11-04T05:23:00;19.30;62.20
13928;DHT22;7036;50.834;4.718;2022-11-04T05:25:26;19.20;62.00
13928;DHT22;7036;50.834;4.718;2022-11-04T05:27:53;19.30;62.10
13928;DHT22;7036;50.834;4.718;2022-11-04T05:30:20;19.30;62.10
13928;DHT22;7036;50.834;4.718;2022-11-04T05:32:48;19.30;62.10
13928;DHT22;7036;50.834;4.718;2022-11-04T05:35:16;19.30;62.20
13928;DHT22;7036;50.834;4.718;2022-11-04T05:37:43;19.30;62.10
13928;DHT22;7036;50.834;4.718;2022-11-04T05:40:11;19.30;62.30
13928;DHT22;7036;50.834;4.718;2022-11-04T05:42:38;19.30;62.10
13928;DHT22;7036;50.834;4.718;2022-11-04T05:45:08;19.30;62.20
13928;DHT22;7036;50.834;4.718;2022-11-04T05:47:35;19.30;62.20
13928;DHT22;7036;50.834;4.718;2022-11-04T05:50:02;19.20;62.20
13928;DHT22;7036;50.834;4.718;2022-11-04T05:52:30;19.20;62.10
13928;DHT22;7036;50.834;4.718;2022-11-04T05:54:57;19.20;62.10
13928;DHT22;7036;50.834;4.718;2022-11-04T05:57:24;19.20;62.10
13928;DHT22;7036;50.834;4.718;2022-11-04T05:59:51;19.20;62.20
13928;DHT22;7036;50.834;4.718;2022-11-04T06:02:18;19.20;62.10
13928;DHT22;7036;50.834;4.718;2022-11-04T06:04:45;19.20;62.10
13928;DHT22;7036;50.834;4.718;2022-11-04T06:07:13;19.20;62.80
13928;DHT22;7036;50.834;4.718;2022-11-04T06:09:40;19.20;62.10
13928;DHT22;7036;50.834;4.718;2022-11-04T06:12:08;19.20;62.10
13928;DHT22;7036;50.834;4.718;2022-11-04T06:14:35;19.20;62.20
13928;DHT22;7036;50.834;4.718;2022-11-04T06:17:02;19.20;62.20
13928;DHT22;7036;50.834;4.718;2022-11-04T06:19:30;19.20;62.30
13928;DHT22;7036;50.834;4.718;2022-11-04T06:21:58;19.20;62.20
13928;DHT22;7036;50.834;4.718;2022-11-04T06:24:27;19.20;62.10
13928;DHT22;7036;50.834;4.718;2022-11-04T06:26:55;19.20;62.10
13928;DHT22;7036;50.834;4.718;2022-11-04T06:29:23;19.20;62.10
13928;DHT22;7036;50.834;4.718;2022-11-04T06:31:50;19.20;62.20
13928;DHT22;7036;50.834;4.718;2022-11-04T06:34:17;19.20;62.20
13928;DHT22;7036;50.834;4.718;2022-11-04T06:36:44;19.20;62.20
13928;DHT22;7036;50.834;4.718;2022-11-04T06:39:12;19.20;62.60
13928;DHT22;7036;50.834;4.718;2022-11-04T06:41:39;19.20;62.20
13928;DHT22;7036;50.834;4.718;2022-11-04T06:44:06;19.20;62.20
13928;DHT22;7036;50.834;4.718;2022-11-04T06:46:37;19.20;62.20
13928;DHT22;7036;50.834;4.718;2022-11-04T06:49:05;19.20;62.30
13928;DHT22;7036;50.834;4.718;2022-11-04T06:51:31;19.20;62.20
13928;DHT22;7036;50.834;4.718;2022-11-04T06:53:58;19.20;62.20
13928;DHT22;7036;50.834;4.718;2022-11-04T06:56:25;19.20;62.20
13928;DHT22;7036;50.834;4.718;2022-11-04T06:58:53;19.20;62.30
13928;DHT22;7036;50.834;4.718;2022-11-04T07:01:21;19.20;62.40
13928;DHT22;7036;50.834;4.718;2022-11-04T07:03:49;19.20;62.40
13928;DHT22;7036;50.834;4.718;2022-11-04T07:06:16;19.20;62.30
13928;DHT22;7036;50.834;4.718;2022-11-04T07:08:44;19.10;62.80
13928;DHT22;7036;50.834;4.718;2022-11-04T07:11:11;19.10;62.70
13928;DHT22;7036;50.834;4.718;2022-11-04T07:13:39;19.10;63.20
13928;DHT22;7036;50.834;4.718;2022-11-04T07:16:07;19.10;63.00
13928;DHT22;7036;50.834;4.718;2022-11-04T07:18:34;19.10;62.80
13928;DHT22;7036;50.834;4.718;2022-11-04T07:21:02;19.20;62.80
13928;DHT22;7036;50.834;4.718;2022-11-04T07:23:30;19.20;63.40
13928;DHT22;7036;50.834;4.718;2022-11-04T07:26:01;19.20;62.50
13928;DHT22;7036;50.834;4.718;2022-11-04T07:28:26;19.30;62.60
13928;DHT22;7036;50.834;4.718;2022-11-04T07:30:55;19.40;62.30
13928;DHT22;7036;50.834;4.718;2022-11-04T07:33:23;19.40;62.30
13928;DHT22;7036;50.834;4.718;2022-11-04T07:35:50;19.50;62.20
13928;DHT22;7036;50.834;4.718;2022-11-04T07:38:18;19.50;62.10
13928;DHT22;7036;50.834;4.718;2022-11-04T07:40:45;19.50;62.50
13928;DHT22;7036;50.834;4.718;2022-11-04T07:43:14;19.50;62.00
13928;DHT22;7036;50.834;4.718;2022-11-04T07:45:41;19.50;61.90
13928;DHT22;7036;50.834;4.718;2022-11-04T07:48:08;19.60;61.90
13928;DHT22;7036;50.834;4.718;2022-11-04T07:50:38;19.60;61.90
13928;DHT22;7036;50.834;4.718;2022-11-04T07:53:05;19.50;61.70
13928;DHT22;7036;50.834;4.718;2022-11-04T07:55:35;19.60;61.90
13928;DHT22;7036;50.834;4.718;2022-11-04T07:58:01;19.60;61.80
13928;DHT22;7036;50.834;4.718;2022-11-04T08:00:29;19.60;61.80
13928;DHT22;7036;50.834;4.718;2022-11-04T08:02:57;19.70;61.90
13928;DHT22;7036;50.834;4.718;2022-11-04T08:05:24;19.60;61.70
13928;DHT22;7036;50.834;4.718;2022-11-04T08:07:51;19.60;61.80
13928;DHT22;7036;50.834;4.718;2022-11-04T08:10:19;19.70;61.90
13928;DHT22;7036;50.834;4.718;2022-11-04T08:12:49;19.70;61.90
13928;DHT22;7036;50.834;4.718;2022-11-04T08:15:15;19.70;61.80
13928;DHT22;7036;50.834;4.718;2022-11-04T08:17:43;19.70;61.90
13928;DHT22;7036;50.834;4.718;2022-11-04T08:20:11;19.70;61.90
13928;DHT22;7036;50.834;4.718;2022-11-04T08:22:38;19.70;61.80
13928;DHT22;7036;50.834;4.718;2022-11-04T08:25:07;19.80;61.90
13928;DHT22;7036;50.834;4.718;2022-11-04T08:27:34;19.70;61.80
13928;DHT22;7036;50.834;4.718;2022-11-04T08:30:01;19.70;61.60
13928;DHT22;7036;50.834;4.718;2022-11-04T08:32:28;19.70;61.70
13928;DHT22;7036;50.834;4.718;2022-11-04T08:34:55;19.80;61.70
13928;DHT22;7036;50.834;4.718;2022-11-04T08:37:22;19.80;61.70
13928;DHT22;7036;50.834;4.718;2022-11-04T08:39:49;19.80;61.80
13928;DHT22;7036;50.834;4.718;2022-11-04T08:42:17;19.80;61.70
13928;DHT22;7036;50.834;4.718;2022-11-04T08:44:45;19.80;61.70
13928;DHT22;7036;50.834;4.718;2022-11-04T08:47:57;19.80;61.10
13928;DHT22;7036;50.834;4.718;2022-11-04T08:50:24;19.80;61.70
13928;DHT22;7036;50.834;4.718;2022-11-04T08:52:52;19.80;61.50
13928;DHT22;7036;50.834;4.718;2022-11-04T08:55:19;19.80;61.50
13928;DHT22;7036;50.834;4.718;2022-11-04T08:57:47;19.90;61.70
13928;DHT22;7036;50.834;4.718;2022-11-04T09:00:16;19.90;61.70
13928;DHT22;7036;50.834;4.718;2022-11-04T09:02:44;19.90;61.70
13928;DHT22;7036;50.834;4.718;2022-11-04T09:05:12;19.90;61.80
13928;DHT22;7036;50.834;4.718;2022-11-04T09:07:41;19.90;61.80
13928;DHT22;7036;50.834;4.718;2022-11-04T09:10:09;19.90;61.80
13928;DHT22;7036;50.834;4.718;2022-11-04T09:12:36;19.90;61.80
13928;DHT22;7036;50.834;4.718;2022-11-04T09:15:05;19.90;61.80
13928;DHT22;7036;50.834;4.718;2022-11-04T09:17:32;19.90;61.70
13928;DHT22;7036;50.834;4.718;2022-11-04T09:19:59;19.90;61.70
13928;DHT22;7036;50.834;4.718;2022-11-04T09:22:27;20.00;61.90
13928;DHT22;7036;50.834;4.718;2022-11-04T09:24:55;20.00;61.80
13928;DHT22;7036;50.834;4.718;2022-11-04T09:27:23;20.00;61.90
13928;DHT22;7036;50.834;4.718;2022-11-04T09:29:51;20.00;61.80
13928;DHT22;7036;50.834;4.718;2022-11-04T09:32:18;20.00;61.70
13928;DHT22;7036;50.834;4.718;2022-11-04T09:34:45;20.00;61.60
13928;DHT22;7036;50.834;4.718;2022-11-04T09:37:13;20.00;61.60
13928;DHT22;7036;50.834;4.718;2022-11-04T09:39:41;20.00;61.80
13928;DHT22;7036;50.834;4.718;2022-11-04T09:42:16;20.00;61.80
13928;DHT22;7036;50.834;4.718;2022-11-04T09:47:14;20.00;61.70
13928;DHT22;7036;50.834;4.718;2022-11-04T09:49:42;20.00;61.80
13928;DHT22;7036;50.834;4.718;2022-11-04T09:52:53;20.00;61.80
13928;DHT22;7036;50.834;4.718;2022-11-04T09:54:58;20.00;61.70
13928;DHT22;7036;50.834;4.718;2022-11-04T09:57:22;20.10;61.70
13928;DHT22;7036;50.834;4.718;2022-11-04T09:59:49;20.00;61.70
13928;DHT22;7036;50.834;4.718;2022-11-04T10:02:26;20.10;61.80
13928;DHT22;7036;50.834;4.718;2022-11-04T10:07:44;20.10;61.80
13928;DHT22;7036;50.834;4.718;2022-11-04T10:15:40;20.10;61.60
13928;DHT22;7036;50.834;4.718;2022-11-04T10:26:46;20.20;61.40
13928;DHT22;7036;50.834;4.718;2022-11-04T10:29:15;20.20;61.50
13928;DHT22;7036;50.834;4.718;2022-11-04T10:31:42;20.20;61.40
13928;DHT22;7036;50.834;4.718;2022-11-04T10:34:25;20.20;61.30
13928;DHT22;7036;50.834;4.718;2022-11-04T10:36:50;20.20;61.40
13928;DHT22;7036;50.834;4.718;2022-11-04T10:39:27;20.20;61.30
13928;DHT22;7036;50.834;4.718;2022-11-04T10:41:54;20.30;61.30
13928;DHT22;7036;50.834;4.718;2022-11-04T10:44:25;20.20;61.20
13928;DHT22;7036;50.834;4.718;2022-11-04T10:47:06;20.30;61.20
13928;DHT22;7036;50.834;4.718;2022-11-04T10:52:16;20.20;61.30
13928;DHT22;7036;50.834;4.718;2022-11-04T10:54:47;20.30;62.30
13928;DHT22;7036;50.834;4.718;2022-11-04T10:57:21;20.30;61.40
13928;DHT22;7036;50.834;4.718;2022-11-04T11:00:01;20.30;61.50
13928;DHT22;7036;50.834;4.718;2022-11-04T11:07:48;20.40;61.50
13928;DHT22;7036;50.834;4.718;2022-11-04T11:10:19;20.30;61.30
13928;DHT22;7036;50.834;4.718;2022-11-04T11:12:49;20.30;61.30
13928;DHT22;7036;50.834;4.718;2022-11-04T11:15:24;20.30;61.40
13928;DHT22;7036;50.834;4.718;2022-11-04T11:17:46;20.30;61.60
13928;DHT22;7036;50.834;4.718;2022-11-04T11:20:20;20.30;61.40
13928;DHT22;7036;50.834;4.718;2022-11-04T11:22:47;20.30;61.40
13928;DHT22;7036;50.834;4.718;2022-11-04T11:27:49;20.30;61.50
13928;DHT22;7036;50.834;4.718;2022-11-04T11:30:18;20.30;61.40
13928;DHT22;7036;50.834;4.718;2022-11-04T11:32:45;20.30;61.40
13928;DHT22;7036;50.834;4.718;2022-11-04T11:35:18;20.30;61.50
13928;DHT22;7036;50.834;4.718;2022-11-04T11:37:44;20.30;61.50
13928;DHT22;7036;50.834;4.718;2022-11-04T11:40:26;20.30;61.60
13928;DHT22;7036;50.834;4.718;2022-11-04T11:42:50;20.30;61.50
13928;DHT22;7036;50.834;4.718;2022-11-04T11:45:18;20.20;61.60
13928;DHT22;7036;50.834;4.718;2022-11-04T11:47:45;20.30;61.50
13928;DHT22;7036;50.834;4.718;2022-11-04T11:50:17;20.20;61.50
13928;DHT22;7036;50.834;4.718;2022-11-04T11:52:47;20.20;61.50
13928;DHT22;7036;50.834;4.718;2022-11-04T11:55:18;20.30;61.40
13928;DHT22;7036;50.834;4.718;2022-11-04T11:57:51;20.20;61.40
13928;DHT22;7036;50.834;4.718;2022-11-04T12:00:14;20.30;61.40
13928;DHT22;7036;50.834;4.718;2022-11-04T12:02:50;20.20;62.20
13928;DHT22;7036;50.834;4.718;2022-11-04T12:05:16;20.20;62.10
13928;DHT22;7036;50.834;4.718;2022-11-04T12:11:06;20.30;61.40
13928;DHT22;7036;50.834;4.718;2022-11-04T12:13:23;20.30;61.30
13928;DHT22;7036;50.834;4.718;2022-11-04T12:16:50;20.30;61.30
13928;DHT22;7036;50.834;4.718;2022-11-04T12:18:56;20.30;61.40
13928;DHT22;7036;50.834;4.718;2022-11-04T12:21:21;20.30;61.80
13928;DHT22;7036;50.834;4.718;2022-11-04T12:29:07;20.30;62.40
13928;DHT22;7036;50.834;4.718;2022-11-04T12:31:41;20.30;62.40
13928;DHT22;7036;50.834;4.718;2022-11-04T12:42:26;20.30;62.30
13928;DHT22;7036;50.834;4.718;2022-11-04T12:47:38;20.30;62.30
13928;DHT22;7036;50.834;4.718;2022-11-04T12:55:27;20.20;62.40
13928;DHT22;7036;50.834;4.718;2022-11-04T13:00:37;20.20;62.30
13928;DHT22;7036;50.834;4.718;2022-11-04T13:03:15;20.20;62.40
13928;DHT22;7036;50.834;4.718;2022-11-04T13:05:51;20.20;62.30
13928;DHT22;7036;50.834;4.718;2022-11-04T13:08:27;20.20;62.50
13928;DHT22;7036;50.834;4.718;2022-11-04T13:10:53;20.20;62.30
13928;DHT22;7036;50.834;4.718;2022-11-04T13:13:21;20.20;62.60
13928;DHT22;7036;50.834;4.718;2022-11-04T13:15:49;20.10;62.40
13928;DHT22;7036;50.834;4.718;2022-11-04T13:18:18;20.10;62.30
13928;DHT22;7036;50.834;4.718;2022-11-04T13:20:44;20.20;62.40
13928;DHT22;7036;50.834;4.718;2022-11-04T13:23:16;20.10;62.40
13928;DHT22;7036;50.834;4.718;2022-11-04T13:25:46;20.10;62.30
13928;DHT22;7036;50.834;4.718;2022-11-04T13:28:14;20.10;62.40
13928;DHT22;7036;50.834;4.718;2022-11-04T13:30:58;20.10;62.40
13928;DHT22;7036;50.834;4.718;2022-11-04T13:33:35;20.10;62.30
13928;DHT22;7036;50.834;4.718;2022-11-04T13:38:36;20.20;62.40
13928;DHT22;7036;50.834;4.718;2022-11-04T13:43:33;20.10;63.10
13928;DHT22;7036;50.834;4.718;2022-11-04T13:48:37;20.10;62.20
13928;DHT22;7036;50.834;4.718;2022-11-04T13:51:07;20.10;62.20
13928;DHT22;7036;50.834;4.718;2022-11-04T13:53:54;20.10;62.40
13928;DHT22;7036;50.834;4.718;2022-11-04T13:56:30;20.10;62.20
13928;DHT22;7036;50.834;4.718;2022-11-04T13:59:00;20.10;62.30
13928;DHT22;7036;50.834;4.718;2022-11-04T14:01:25;20.10;62.50
13928;DHT22;7036;50.834;4.718;2022-11-04T14:03:53;20.20;62.60
13928;DHT22;7036;50.834;4.718;2022-11-04T14:06:47;20.20;62.60
13928;DHT22;7036;50.834;4.718;2022-11-04T14:09:32;20.20;62.50
13928;DHT22;7036;50.834;4.718;2022-11-04T14:14:41;20.20;62.70
13928;DHT22;7036;50.834;4.718;2022-11-04T14:22:36;20.10;62.70
13928;DHT22;7036;50.834;4.718;2022-11-04T14:25:17;20.20;63.00
13928;DHT22;7036;50.834;4.718;2022-11-04T14:27:33;20.10;62.80
13928;DHT22;7036;50.834;4.718;2022-11-04T14:29:58;20.20;62.90
13928;DHT22;7036;50.834;4.718;2022-11-04T14:32:28;20.20;62.80
13928;DHT22;7036;50.834;4.718;2022-11-04T14:34:59;20.20;62.90
13928;DHT22;7036;50.834;4.718;2022-11-04T14:37:26;20.20;62.80
13928;DHT22;7036;50.834;4.718;2022-11-04T14:40:00;20.10;62.50
13928;DHT22;7036;50.834;4.718;2022-11-04T14:42:49;20.10;62.30
13928;DHT22;7036;50.834;4.718;2022-11-04T14:45:22;20.20;62.70
13928;DHT22;7036;50.834;4.718;2022-11-04T14:47:51;20.10;62.90
13928;DHT22;7036;50.834;4.718;2022-11-04T14:50:25;20.10;62.70
13928;DHT22;7036;50.834;4.718;2022-11-04T14:53:11;20.10;62.70
13928;DHT22;7036;50.834;4.718;2022-11-04T14:55:37;20.10;62.70
13928;DHT22;7036;50.834;4.718;2022-11-04T14:58:27;20.10;62.70
13928;DHT22;7036;50.834;4.718;2022-11-04T15:00:59;20.10;62.70
13928;DHT22;7036;50.834;4.718;2022-11-04T15:03:36;20.10;62.90
13928;DHT22;7036;50.834;4.718;2022-11-04T15:06:03;20.10;62.90
13928;DHT22;7036;50.834;4.718;2022-11-04T15:08:31;20.10;62.90
13928;DHT22;7036;50.834;4.718;2022-11-04T15:11:09;20.10;63.00
13928;DHT22;7036;50.834;4.718;2022-11-04T15:13:37;20.00;62.80
13928;DHT22;7036;50.834;4.718;2022-11-04T15:16:08;20.00;63.00
13928;DHT22;7036;50.834;4.718;2022-11-04T15:18:35;20.00;62.90
13928;DHT22;7036;50.834;4.718;2022-11-04T15:21:02;20.10;63.40
13928;DHT22;7036;50.834;4.718;2022-11-04T15:23:30;20.00;62.90
13928;DHT22;7036;50.834;4.718;2022-11-04T15:25:57;20.00;63.00
13928;DHT22;7036;50.834;4.718;2022-11-04T15:28:28;20.00;62.90
13928;DHT22;7036;50.834;4.718;2022-11-04T15:31:06;20.00;63.10
13928;DHT22;7036;50.834;4.718;2022-11-04T15:33:36;20.00;63.00
13928;DHT22;7036;50.834;4.718;2022-11-04T15:36:02;20.00;63.00
13928;DHT22;7036;50.834;4.718;2022-11-04T15:38:30;20.00;63.20
13928;DHT22;7036;50.834;4.718;2022-11-04T15:40:57;20.00;63.10
13928;DHT22;7036;50.834;4.718;2022-11-04T15:43:25;19.90;63.10
13928;DHT22;7036;50.834;4.718;2022-11-04T15:45:52;20.00;63.00
13928;DHT22;7036;50.834;4.718;2022-11-04T15:48:30;20.00;63.10
13928;DHT22;7036;50.834;4.718;2022-11-04T15:53:32;19.90;63.00
13928;DHT22;7036;50.834;4.718;2022-11-04T15:56:00;19.90;63.20
13928;DHT22;7036;50.834;4.718;2022-11-04T15:58:27;19.90;63.10
13928;DHT22;7036;50.834;4.718;2022-11-04T16:00:55;19.90;63.00
13928;DHT22;7036;50.834;4.718;2022-11-04T16:03:23;19.90;63.10
13928;DHT22;7036;50.834;4.718;2022-11-04T16:06:03;19.90;63.00
13928;DHT22;7036;50.834;4.718;2022-11-04T16:08:30;19.90;63.10
13928;DHT22;7036;50.834;4.718;2022-11-04T16:11:13;19.90;63.00
13928;DHT22;7036;50.834;4.718;2022-11-04T16:13:39;19.90;63.00
13928;DHT22;7036;50.834;4.718;2022-11-04T16:16:14;19.90;63.10
13928;DHT22;7036;50.834;4.718;2022-11-04T16:18:38;19.80;62.80
13928;DHT22;7036;50.834;4.718;2022-11-04T16:21:06;19.90;63.00
13928;DHT22;7036;50.834;4.718;2022-11-04T16:23:32;19.80;63.00
13928;DHT22;7036;50.834;4.718;2022-11-04T16:26:00;19.80;62.90
13928;DHT22;7036;50.834;4.718;2022-11-04T16:28:28;19.80;63.00
13928;DHT22;7036;50.834;4.718;2022-11-04T16:30:58;19.80;62.80
13928;DHT22;7036;50.834;4.718;2022-11-04T16:33:26;19.80;62.90
13928;DHT22;7036;50.834;4.718;2022-11-04T16:35:53;19.80;62.80
13928;DHT22;7036;50.834;4.718;2022-11-04T16:38:21;19.80;62.90
13928;DHT22;7036;50.834;4.718;2022-11-04T16:40:48;19.80;62.80
13928;DHT22;7036;50.834;4.718;2022-11-04T16:43:17;19.70;62.80
13928;DHT22;7036;50.834;4.718;2022-11-04T16:45:44;19.70;62.70
13928;DHT22;7036;50.834;4.718;2022-11-04T16:48:15;19.70;62.70
13928;DHT22;7036;50.834;4.718;2022-11-04T16:50:40;19.80;62.70
13928;DHT22;7036;50.834;4.718;2022-11-04T16:53:07;19.80;62.60
13928;DHT22;7036;50.834;4.718;2022-11-04T16:55:36;19.80;62.60
13928;DHT22;7036;50.834;4.718;2022-11-04T16:58:03;19.70;62.70
13928;DHT22;7036;50.834;4.718;2022-11-04T17:00:30;19.70;62.60
13928;DHT22;7036;50.834;4.718;2022-11-04T17:03:01;19.70;62.70
13928;DHT22;7036;50.834;4.718;2022-11-04T17:05:27;19.70;62.60
13928;DHT22;7036;50.834;4.718;2022-11-04T17:07:55;19.70;63.50
13928;DHT22;7036;50.834;4.718;2022-11-04T17:10:24;19.70;62.60
13928;DHT22;7036;50.834;4.718;2022-11-04T17:12:52;19.70;63.00
13928;DHT22;7036;50.834;4.718;2022-11-04T17:15:20;19.70;62.70
13928;DHT22;7036;50.834;4.718;2022-11-04T17:17:47;19.70;62.60
13928;DHT22;7036;50.834;4.718;2022-11-04T17:20:15;19.70;63.50
13928;DHT22;7036;50.834;4.718;2022-11-04T17:22:42;19.70;62.60
13928;DHT22;7036;50.834;4.718;2022-11-04T17:25:21;19.70;62.70
13928;DHT22;7036;50.834;4.718;2022-11-04T17:27:47;19.60;62.60
13928;DHT22;7036;50.834;4.718;2022-11-04T17:30:14;19.70;62.40
13928;DHT22;7036;50.834;4.718;2022-11-04T17:32:42;19.70;62.30
13928;DHT22;7036;50.834;4.718;2022-11-04T17:35:09;19.70;62.30
13928;DHT22;7036;50.834;4.718;2022-11-04T17:37:37;19.70;62.20
13928;DHT22;7036;50.834;4.718;2022-11-04T17:40:05;19.80;62.60
13928;DHT22;7036;50.834;4.718;2022-11-04T17:42:35;19.80;61.90